Sedbergh, United Kingdom
Current Conditions -  °F | °C
As of 11:50 PM on Sunday 23 Nov 2014 (Local Time) from EGXE Reporting Station
Haze Haze  
Wind Chill: 28°   Ceiling: Unl
Heat Index: 28°   Visibility: 2.9mi
Dew Point: 28°   Wind: 1mph
Humidity: 100%   Direction: 310°NW
Pressure: 30.12"   Gusts: NA
Location:  54.32°N, 2.53°W
Report Text: EGXE 232350Z AUTO 31001KT 4700 BR NCD M02/M02 Q1020
Loading
Personal Weather Stations






























Interactive Weather Map New forecast layout! Learn more

10-Day Weather Forecast

Advertisements
Track Severe Weather on mobile